Time;durP1;ratioP1;P1;durP2;ratioP2;P2;SDS_P1;SDS_P2;PMS_P1;PMS_P2;Temp;Humidity;BMP_temperature;BMP_pressure;BME280_temperature;BME280_humidity;BME280_pressure;Samples;Min_cycle;Max_cycle;Signal;HPM_P1;HPM_P2
2023/04/03 00:02:14;;;;;;;8.3;6.8;;;;;;;;;;;;;
2023/04/03 00:04:39;;;;;;;6.9;6;;;;;;;;;;;;;
2023/04/03 00:07:08;;;;;;;8;6.8;;;;;;;;;;;;;
2023/04/03 00:09:34;;;;;;;7.4;6.3;;;;;;;;;;;;;
2023/04/03 00:12:00;;;;;;;7.8;7;;;;;;;;;;;;;
2023/04/03 00:14:25;;;;;;;7.9;6.5;;;;;;;;;;;;;
2023/04/03 00:16:51;;;;;;;7.8;7;;;;;;;;;;;;;
2023/04/03 00:19:17;;;;;;;8.2;7.2;;;;;;;;;;;;;
2023/04/03 00:21:42;;;;;;;8.2;7.3;;;;;;;;;;;;;
2023/04/03 00:24:08;;;;;;;9.1;7.4;;;;;;;;;;;;;
2023/04/03 00:26:33;;;;;;;8.5;6.9;;;;;;;;;;;;;
2023/04/03 00:28:59;;;;;;;9;7.6;;;;;;;;;;;;;
2023/04/03 00:31:24;;;;;;;8.7;7.6;;;;;;;;;;;;;
2023/04/03 00:33:53;;;;;;;8.9;8;;;;;;;;;;;;;
2023/04/03 00:36:18;;;;;;;9.4;7.8;;;;;;;;;;;;;
2023/04/03 00:38:44;;;;;;;8.5;7.6;;;;;;;;;;;;;
2023/04/03 00:41:09;;;;;;;8.6;7.7;;;;;;;;;;;;;
2023/04/03 00:43:36;;;;;;;8.3;7.1;;;;;;;;;;;;;
2023/04/03 00:46:01;;;;;;;8.6;7.5;;;;;;;;;;;;;
2023/04/03 00:48:28;;;;;;;8.3;7.3;;;;;;;;;;;;;
2023/04/03 00:50:53;;;;;;;8.3;7.3;;;;;;;;;;;;;
2023/04/03 00:53:20;;;;;;;9.5;7.5;;;;;;;;;;;;;
2023/04/03 00:55:45;;;;;;;8;7.2;;;;;;;;;;;;;
2023/04/03 00:58:14;;;;;;;7.8;6.9;;;;;;;;;;;;;
2023/04/03 01:00:39;;;;;;;8.2;7.3;;;;;;;;;;;;;
2023/04/03 01:03:06;;;;;;;7.6;6.8;;;;;;;;;;;;;
2023/04/03 01:05:32;;;;;;;8.4;7.2;;;;;;;;;;;;;
2023/04/03 01:07:59;;;;;;;8.3;7.4;;;;;;;;;;;;;
2023/04/03 01:10:25;;;;;;;8.8;7.7;;;;;;;;;;;;;
2023/04/03 01:12:54;;;;;;;8.8;7.5;;;;;;;;;;;;;
2023/04/03 01:18:11;;;;;;;10.1;8.5;;;;;;;;;;;;;
2023/04/03 01:20:37;;;;;;;10;8.3;;;;;;;;;;;;;
2023/04/03 01:23:03;;;;;;;8.9;8;;;;;;;;;;;;;
2023/04/03 01:25:28;;;;;;;8.9;8;;;;;;;;;;;;;
2023/04/03 01:27:55;;;;;;;9.7;8.1;;;;;;;;;;;;;
2023/04/03 01:30:20;;;;;;;9.1;8.1;;;;;;;;;;;;;
2023/04/03 01:32:50;;;;;;;8.9;7.7;;;;;;;;;;;;;
2023/04/03 01:35:15;;;;;;;10;8.5;;;;;;;;;;;;;
2023/04/03 01:37:42;;;;;;;9.7;8.2;;;;;;;;;;;;;
2023/04/03 01:40:07;;;;;;;9.3;8.2;;;;;;;;;;;;;
2023/04/03 01:42:35;;;;;;;8.5;7.6;;;;;;;;;;;;;
2023/04/03 01:45:00;;;;;;;9.1;7.8;;;;;;;;;;;;;
2023/04/03 01:47:25;;;;;;;8.5;7.6;;;;;;;;;;;;;
2023/04/03 01:49:50;;;;;;;8.1;7.3;;;;;;;;;;;;;
2023/04/03 01:52:16;;;;;;;8.6;7.2;;;;;;;;;;;;;
2023/04/03 01:54:41;;;;;;;8.9;7.9;;;;;;;;;;;;;
2023/04/03 01:57:06;;;;;;;8.9;7.9;;;;;;;;;;;;;
2023/04/03 01:59:31;;;;;;;8.8;7.9;;;;;;;;;;;;;
2023/04/03 02:01:56;;;;;;;9.6;8.6;;;;;;;;;;;;;
2023/04/03 02:04:21;;;;;;;8.9;7.8;;;;;;;;;;;;;
2023/04/03 02:06:47;;;;;;;9;8;;;;;;;;;;;;;
2023/04/03 02:09:12;;;;;;;9.2;7.9;;;;;;;;;;;;;
2023/04/03 02:11:37;;;;;;;9.7;8.3;;;;;;;;;;;;;
2023/04/03 02:14:02;;;;;;;10.6;8.9;;;;;;;;;;;;;
2023/04/03 02:16:28;;;;;;;10;8.2;;;;;;;;;;;;;
2023/04/03 02:18:53;;;;;;;10.8;8.8;;;;;;;;;;;;;
2023/04/03 02:21:19;;;;;;;10.1;8.8;;;;;;;;;;;;;
2023/04/03 02:23:45;;;;;;;10.2;8.6;;;;;;;;;;;;;
2023/04/03 02:26:10;;;;;;;10.4;8.8;;;;;;;;;;;;;
2023/04/03 02:28:35;;;;;;;9.9;8.3;;;;;;;;;;;;;
2023/04/03 02:31:00;;;;;;;9.2;8.2;;;;;;;;;;;;;
2023/04/03 02:33:27;;;;;;;9.5;8.5;;;;;;;;;;;;;
2023/04/03 02:35:53;;;;;;;9.7;8.2;;;;;;;;;;;;;
2023/04/03 02:38:19;;;;;;;11.1;9.2;;;;;;;;;;;;;
2023/04/03 02:40:44;;;;;;;10.2;9;;;;;;;;;;;;;
2023/04/03 02:43:09;;;;;;;11.2;8.7;;;;;;;;;;;;;
2023/04/03 02:45:34;;;;;;;10.9;9.3;;;;;;;;;;;;;
2023/04/03 02:48:00;;;;;;;11.5;9.8;;;;;;;;;;;;;
2023/04/03 02:50:25;;;;;;;11.7;9.8;;;;;;;;;;;;;
2023/04/03 02:52:51;;;;;;;11.9;9.6;;;;;;;;;;;;;
2023/04/03 02:55:17;;;;;;;12.3;10.2;;;;;;;;;;;;;
2023/04/03 02:57:42;;;;;;;14.2;10.2;;;;;;;;;;;;;
2023/04/03 03:00:08;;;;;;;11.4;9.5;;;;;;;;;;;;;
2023/04/03 03:02:35;;;;;;;12.2;9.9;;;;;;;;;;;;;
2023/04/03 03:05:00;;;;;;;10.5;8.9;;;;;;;;;;;;;
2023/04/03 03:07:26;;;;;;;11.8;9.6;;;;;;;;;;;;;
2023/04/03 03:09:51;;;;;;;11.6;9.6;;;;;;;;;;;;;
2023/04/03 03:12:21;;;;;;;10.8;9.1;;;;;;;;;;;;;
2023/04/03 03:14:42;;;;;;;11.7;9.4;;;;;;;;;;;;;
2023/04/03 03:17:07;;;;;;;11.6;9.3;;;;;;;;;;;;;
2023/04/03 03:19:32;;;;;;;10.7;8.9;;;;;;;;;;;;;
2023/04/03 03:21:59;;;;;;;11;9.2;;;;;;;;;;;;;
2023/04/03 03:24:25;;;;;;;11.9;9.3;;;;;;;;;;;;;
2023/04/03 03:26:50;;;;;;;11;9.4;;;;;;;;;;;;;
2023/04/03 03:29:15;;;;;;;11.8;9.3;;;;;;;;;;;;;
2023/04/03 03:31:41;;;;;;;10.1;9;;;;;;;;;;;;;
2023/04/03 03:34:06;;;;;;;11.2;9.8;;;;;;;;;;;;;
2023/04/03 03:36:33;;;;;;;12.4;10.2;;;;;;;;;;;;;
2023/04/03 03:38:58;;;;;;;12.5;10.5;;;;;;;;;;;;;
2023/04/03 03:41:26;;;;;;;12.2;10.3;;;;;;;;;;;;;
2023/04/03 03:43:50;;;;;;;12.1;10.2;;;;;;;;;;;;;
2023/04/03 03:46:15;;;;;;;12.7;10.5;;;;;;;;;;;;;
2023/04/03 03:48:41;;;;;;;14.1;10.3;;;;;;;;;;;;;
2023/04/03 03:51:07;;;;;;;13.4;10.6;;;;;;;;;;;;;
2023/04/03 03:53:34;;;;;;;14.5;10.7;;;;;;;;;;;;;
2023/04/03 03:56:00;;;;;;;12.8;10.6;;;;;;;;;;;;;
2023/04/03 03:58:25;;;;;;;13.2;10.8;;;;;;;;;;;;;
2023/04/03 04:16:46;;;;;;;12.1;10;;;;;;;2.37;97.7627;940.9872;;;;
2023/04/03 04:19:12;;;;;;;12.5;9.8;;;;;;;2.47;97.87305;941.0666;;;;
2023/04/03 04:21:37;;;;;;;11.9;9.8;;;;;;;2.58;97.45117;941.0988;;;;
2023/04/03 04:24:02;;;;;;;11.8;9.7;;;;;;;2.63;97.00195;941.0995;;;;
2023/04/03 04:26:33;;;;;;;11.4;9.3;;;;;;;2.64;96.4668;940.9902;;;;
2023/04/03 04:28:58;;;;;;;12;9.3;;;;;;;2.44;96.46387;941.0313;;;;
2023/04/03 04:31:28;;;;;;;11.3;9.1;;;;;;;2.48;96.63281;941.0754;;;;
2023/04/03 04:33:58;;;;;;;11.7;9.4;;;;;;;2.6;96.42285;941.0759;;;;
2023/04/03 04:36:23;;;;;;;10.9;9.3;;;;;;;2.65;96.03125;941.0934;;;;
2023/04/03 04:38:53;;;;;;;12;9.8;;;;;;;2.7;95.79688;941.1537;;;;
2023/04/03 04:41:22;;;;;;;11;9.4;;;;;;;2.68;95.63574;941.1774;;;;
2023/04/03 04:43:47;;;;;;;11.2;9.4;;;;;;;2.73;95.6123;941.1362;;;;
2023/04/03 04:46:16;;;;;;;11.7;9.1;;;;;;;2.74;95.37891;941.1184;;;;
2023/04/03 04:48:42;;;;;;;12.6;9.5;;;;;;;2.61;95.54102;941.1105;;;;
2023/04/03 04:51:09;;;;;;;11.6;9.3;;;;;;;2.66;95.87598;941.0876;;;;
2023/04/03 04:53:34;;;;;;;12.6;9.6;;;;;;;2.67;95.58496;941.0878;;;;
2023/04/03 04:56:02;;;;;;;12.7;9.8;;;;;;;2.6;96.03027;941.0287;;;;
2023/04/03 04:58:27;;;;;;;12.6;9.7;;;;;;;2.58;96.20703;941.0406;;;;
2023/04/03 05:00:55;;;;;;;11.4;9;;;;;;;2.71;96.0791;941.0694;;;;
2023/04/03 05:03:20;;;;;;;11.5;9.8;;;;;;;2.66;95.73047;941.0725;;;;
2023/04/03 05:05:48;;;;;;;11.8;9.3;;;;;;;2.62;95.89941;941.0315;;;;
2023/04/03 05:08:13;;;;;;;12.1;9.7;;;;;;;2.62;95.91309;941.0748;;;;
2023/04/03 05:10:43;;;;;;;12.1;9.8;;;;;;;2.43;96.82227;941.0443;;;;
2023/04/03 05:13:34;;;;;;;13.4;10.6;;;;;;;2.39;97.00488;941.1342;;;;
2023/04/03 05:16:11;;;;;;;12.1;9.2;;;;;;;2.47;97.22266;941.1135;;;;
2023/04/03 05:18:39;;;;;;;12.6;9.7;;;;;;;2.41;97.34277;941.1453;;;;
2023/04/03 05:21:04;;;;;;;11.5;9.2;;;;;;;2.4;98.0127;941.1973;;;;
2023/04/03 05:23:32;;;;;;;11.3;9.3;;;;;;;2.48;97.57422;941.1864;;;;
2023/04/03 05:25:57;;;;;;;10.7;8.7;;;;;;;2.54;97.2041;941.243;;;;
2023/04/03 05:28:31;;;;;;;11.8;8.8;;;;;;;2.61;96.52734;941.2551;;;;
2023/04/03 05:31:01;;;;;;;11.7;8.9;;;;;;;2.58;96.38477;941.2488;;;;
2023/04/03 05:33:26;;;;;;;11.5;9.1;;;;;;;2.55;96.40137;941.2452;;;;
2023/04/03 05:35:53;;;;;;;10.3;8.4;;;;;;;2.54;96.39648;941.2603;;;;
2023/04/03 05:38:19;;;;;;;9.9;8;;;;;;;2.67;96.38477;941.2006;;;;
2023/04/03 05:40:44;;;;;;;9.2;8;;;;;;;2.75;96.2334;941.2195;;;;
2023/04/03 05:43:12;;;;;;;9.5;7.5;;;;;;;2.63;96.53125;941.2646;;;;
2023/04/03 05:45:37;;;;;;;10.5;8;;;;;;;2.68;96.83496;941.1702;;;;
2023/04/03 05:48:04;;;;;;;8.5;7.6;;;;;;;2.56;96.34668;941.2221;;;;
2023/04/03 05:50:30;;;;;;;8.7;7.7;;;;;;;2.48;96.87988;941.217;;;;
2023/04/03 05:52:58;;;;;;;9.2;7.4;;;;;;;2.56;96.83984;941.2014;;;;
2023/04/03 05:55:24;;;;;;;9.6;7.8;;;;;;;2.5;97.27344;941.2003;;;;
2023/04/03 05:57:51;;;;;;;8.6;7.2;;;;;;;2.56;97.32227;941.2266;;;;
2023/04/03 06:00:17;;;;;;;9.3;7.4;;;;;;;2.59;97.51855;941.2524;;;;
2023/04/03 06:02:45;;;;;;;8.7;7.8;;;;;;;2.64;97.47266;941.1777;;;;
2023/04/03 06:05:11;;;;;;;9.3;7.7;;;;;;;2.77;96.94336;941.2158;;;;
2023/04/03 06:07:37;;;;;;;8.8;7.5;;;;;;;2.85;96.27832;941.2469;;;;
2023/04/03 06:10:02;;;;;;;8.9;7.2;;;;;;;2.86;95.63184;941.198;;;;
2023/04/03 06:12:28;;;;;;;9.7;7.6;;;;;;;2.9;95.65137;941.2374;;;;
2023/04/03 06:14:52;;;;;;;9.3;7.5;;;;;;;3.03;95.02832;941.2509;;;;
2023/04/03 06:17:20;;;;;;;9.4;7.8;;;;;;;3.06;94.34082;941.2374;;;;
2023/04/03 06:19:45;;;;;;;8.4;7.2;;;;;;;2.97;93.61426;941.2562;;;;
2023/04/03 06:22:13;;;;;;;8.8;7.2;;;;;;;2.94;94.49219;941.2728;;;;
2023/04/03 06:24:38;;;;;;;8.8;7.4;;;;;;;3.05;94.20215;941.193;;;;
2023/04/03 06:27:04;;;;;;;9.2;7.9;;;;;;;3.11;93.83496;941.293;;;;
2023/04/03 06:29:29;;;;;;;8.7;7.6;;;;;;;3.12;93.47754;941.2892;;;;
2023/04/03 06:32:07;;;;;;;9.2;8.2;;;;;;;3.17;93.28809;941.3167;;;;
2023/04/03 06:34:34;;;;;;;9.6;8.2;;;;;;;3.05;93.04688;941.3125;;;;
2023/04/03 06:36:59;;;;;;;9.6;8.1;;;;;;;2.84;93.78613;941.2795;;;;
2023/04/03 06:39:25;;;;;;;9.7;8;;;;;;;2.9;94.28027;941.3127;;;;
2023/04/03 06:41:50;;;;;;;9.2;7.9;;;;;;;2.95;93.77637;941.3006;;;;
2023/04/03 06:44:18;;;;;;;9.6;7.9;;;;;;;2.94;93.59473;941.3639;;;;
2023/04/03 06:46:43;;;;;;;9.3;8;;;;;;;2.85;94.0459;941.3696;;;;
2023/04/03 06:49:10;;;;;;;9.3;8;;;;;;;2.86;94.40918;941.3914;;;;
2023/04/03 06:51:35;;;;;;;9.5;8.5;;;;;;;2.85;94.16992;941.4325;;;;
2023/04/03 06:54:02;;;;;;;10.5;8.4;;;;;;;2.9;94.14551;941.4064;;;;
2023/04/03 06:56:28;;;;;;;9.8;8.5;;;;;;;2.93;93.95215;941.5232;;;;
2023/04/03 06:58:57;;;;;;;10.2;7.9;;;;;;;2.88;93.92871;941.3543;;;;
2023/04/03 07:01:21;;;;;;;9.9;8.3;;;;;;;2.9;94.02441;941.4969;;;;
2023/04/03 07:03:48;;;;;;;9.7;8.1;;;;;;;2.98;93.72656;941.4411;;;;
2023/04/03 07:06:40;;;;;;;10.7;8.4;;;;;;;2.99;93.51758;941.5179;;;;
2023/04/03 07:09:05;;;;;;;9.9;8.7;;;;;;;3;93.2373;941.5316;;;;
2023/04/03 07:11:30;;;;;;;10.3;8.7;;;;;;;3.01;93.47656;941.5341;;;;
2023/04/03 07:13:58;;;;;;;11.2;8.4;;;;;;;3.14;93.30176;941.5789;;;;
2023/04/03 07:18:48;;;;;;;11.6;9.3;;;;;;;3.15;93.22559;941.6161;;;;
2023/04/03 07:21:15;;;;;;;11.7;9;;;;;;;3.19;92.22559;941.6424;;;;
2023/04/03 07:23:40;;;;;;;11.4;9.7;;;;;;;3.24;92.17871;941.6619;;;;
2023/04/03 07:26:08;;;;;;;11.8;9.3;;;;;;;3.35;92.16895;941.636;;;;
2023/04/03 07:28:33;;;;;;;10.9;9.3;;;;;;;3.44;91.59375;941.6361;;;;
2023/04/03 07:31:00;;;;;;;10.6;8.9;;;;;;;3.34;90.43945;941.6264;;;;
2023/04/03 07:33:26;;;;;;;11.4;9.5;;;;;;;3.46;91.19238;941.573;;;;
2023/04/03 07:35:53;;;;;;;11.1;9.5;;;;;;;3.57;90.47461;941.7011;;;;
2023/04/03 07:38:18;;;;;;;11.5;9.5;;;;;;;3.63;89.78027;941.6984;;;;
2023/04/03 07:40:47;;;;;;;11.7;9.5;;;;;;;3.69;89.89453;941.6994;;;;
2023/04/03 07:43:13;;;;;;;11;9.1;;;;;;;3.8;89.18848;941.6231;;;;
2023/04/03 07:45:38;;;;;;;10.4;8.6;;;;;;;3.61;90.74219;941.7308;;;;
2023/04/03 07:48:06;;;;;;;14;9.8;;;;;;;3.68;90.09473;941.6855;;;;
2023/04/03 07:50:32;;;;;;;10.4;8.8;;;;;;;3.74;89.89258;941.6155;;;;
2023/04/03 07:52:58;;;;;;;9.8;8.5;;;;;;;3.66;91.14551;941.7335;;;;
2023/04/03 07:55:24;;;;;;;11.4;9.5;;;;;;;3.62;90.4541;941.7581;;;;
2023/04/03 07:57:50;;;;;;;11.2;9.3;;;;;;;3.6;89.33789;941.7419;;;;
2023/04/03 08:00:21;;;;;;;10.5;9.1;;;;;;;3.72;90.46387;941.7385;;;;
2023/04/03 08:02:50;;;;;;;11.8;8.9;;;;;;;3.91;89.18945;941.725;;;;
2023/04/03 08:05:13;;;;;;;9.3;8.3;;;;;;;3.97;87.95215;941.7761;;;;
2023/04/03 08:07:39;;;;;;;10.3;8.8;;;;;;;4.1;88.66504;941.7634;;;;
2023/04/03 08:10:05;;;;;;;10.6;8;;;;;;;4.18;87.38965;941.8131;;;;
2023/04/03 08:12:33;;;;;;;9.2;7.8;;;;;;;4.3;86.95215;941.774;;;;
2023/04/03 08:14:58;;;;;;;8.6;7.7;;;;;;;3.78;89.36328;941.8109;;;;
2023/04/03 08:17:26;;;;;;;10.3;8.8;;;;;;;3.8;89.2998;941.825;;;;
2023/04/03 08:19:51;;;;;;;10.8;8.8;;;;;;;3.77;89.82031;941.7924;;;;
2023/04/03 08:22:16;;;;;;;9.6;7.9;;;;;;;3.88;88.57422;941.7614;;;;
2023/04/03 08:24:44;;;;;;;10.7;8.7;;;;;;;3.94;89.1709;941.7758;;;;
2023/04/03 08:27:09;;;;;;;10.6;8.3;;;;;;;4.02;88.51465;941.8337;;;;
2023/04/03 08:29:37;;;;;;;11.2;8.8;;;;;;;3.94;88.26172;941.8617;;;;
2023/04/03 08:32:01;;;;;;;9.7;7.8;;;;;;;3.84;88.31738;941.837;;;;
2023/04/03 08:34:26;;;;;;;10.2;8.3;;;;;;;3.81;88.24707;941.8552;;;;
2023/04/03 08:36:55;;;;;;;9.4;7.8;;;;;;;3.97;87.68262;941.8842;;;;
2023/04/03 08:39:20;;;;;;;10.2;8.7;;;;;;;4.15;86.58398;941.8979;;;;
2023/04/03 08:41:48;;;;;;;10.6;8.1;;;;;;;4.28;86.51953;941.878;;;;
2023/04/03 08:44:13;;;;;;;10;7.7;;;;;;;4.24;86.36523;941.848;;;;
2023/04/03 08:46:38;;;;;;;9.6;7.6;;;;;;;4.2;85.96289;941.8137;;;;
2023/04/03 08:49:07;;;;;;;9.4;7.6;;;;;;;4.36;85.13086;941.7369;;;;
2023/04/03 08:51:32;;;;;;;10.5;8.1;;;;;;;4.21;85.39063;941.8081;;;;
2023/04/03 08:53:58;;;;;;;10.2;7.7;;;;;;;4.23;85.75586;941.8256;;;;
2023/04/03 08:56:23;;;;;;;9.6;7.6;;;;;;;4.36;85.89453;941.8351;;;;
2023/04/03 08:58:48;;;;;;;10.6;8.1;;;;;;;4.41;85.09082;941.8644;;;;
2023/04/03 09:01:15;;;;;;;11.2;8;;;;;;;4.43;84.71582;941.821;;;;
2023/04/03 09:06:30;;;;;;;9.6;7.8;;;;;;;4.32;84.48047;941.8809;;;;
2023/04/03 09:09:50;;;;;;;7.6;6.6;;;;;;;4.33;83.88574;941.92;;;;
2023/04/03 09:12:15;;;;;;;8.4;6.9;;;;;;;4.51;83.87793;941.9313;;;;
2023/04/03 09:14:40;;;;;;;7.2;6.3;;;;;;;;;;;;;
2023/04/03 09:17:05;;;;;;;8.5;6.7;;;;;;;;;;;;;
2023/04/03 09:19:30;;;;;;;9.5;7.2;;;;;;;;;;;;;
2023/04/03 09:21:55;;;;;;;9.1;7;;;;;;;;;;;;;
2023/04/03 09:24:20;;;;;;;8.2;6.9;;;;;;;;;;;;;
2023/04/03 09:26:45;;;;;;;8.6;6.5;;;;;;;;;;;;;
2023/04/03 09:29:12;;;;;;;7.8;7;;;;;;;;;;;;;
2023/04/03 09:31:37;;;;;;;9;6.7;;;;;;;;;;;;;
2023/04/03 09:34:04;;;;;;;8.2;7;;;;;;;;;;;;;
2023/04/03 09:36:30;;;;;;;9;6.7;;;;;;;;;;;;;
2023/04/03 09:38:55;;;;;;;7.3;6.6;;;;;;;;;;;;;
2023/04/03 09:41:20;;;;;;;6.6;5.9;;;;;;;;;;;;;
2023/04/03 09:43:45;;;;;;;7;5.8;;;;;;;;;;;;;
2023/04/03 09:46:10;;;;;;;5.8;5.2;;;;;;;;;;;;;
2023/04/03 09:48:35;;;;;;;5.6;5.1;;;;;;;;;;;;;
2023/04/03 09:51:01;;;;;;;6;5;;;;;;;;;;;;;
2023/04/03 09:53:46;;;;;;;6.5;5.4;;;;;;;;;;;;;
2023/04/03 09:56:11;;;;;;;6.9;5.5;;;;;;;;;;;;;
2023/04/03 09:58:55;;;;;;;5.6;5;;;;;;;;;;;;;
2023/04/03 10:01:20;;;;;;;5.7;5.1;;;;;;;;;;;;;
2023/04/03 10:03:46;;;;;;;5.1;4.6;;;;;;;;;;;;;
2023/04/03 10:06:11;;;;;;;5.7;5;;;;;;;;;;;;;
2023/04/03 10:08:36;;;;;;;5.5;4.8;;;;;;;;;;;;;
2023/04/03 10:11:01;;;;;;;5.1;4.6;;;;;;;;;;;;;
2023/04/03 10:13:26;;;;;;;5.5;4.7;;;;;;;;;;;;;
2023/04/03 10:15:52;;;;;;;4.6;4.2;;;;;;;;;;;;;
2023/04/03 10:18:16;;;;;;;4.6;4.1;;;;;;;;;;;;;
2023/04/03 10:20:41;;;;;;;5.3;4.1;;;;;;;;;;;;;
2023/04/03 10:23:06;;;;;;;5.1;4.2;;;;;;;;;;;;;
2023/04/03 10:25:32;;;;;;;5.9;4.4;;;;;;;;;;;;;
2023/04/03 10:27:57;;;;;;;4.9;4.2;;;;;;;;;;;;;
2023/04/03 10:30:22;;;;;;;5.1;4.5;;;;;;;;;;;;;
2023/04/03 10:32:47;;;;;;;4.2;3.8;;;;;;;;;;;;;
2023/04/03 10:35:36;;;;;;;4.3;3.9;;;;;;;;;;;;;
2023/04/03 10:38:01;;;;;;;4.4;4;;;;;;;;;;;;;
2023/04/03 10:40:26;;;;;;;4.3;3.9;;;;;;;;;;;;;
2023/04/03 10:42:51;;;;;;;4.2;3.8;;;;;;;;;;;;;
2023/04/03 10:45:17;;;;;;;4;3.6;;;;;;;;;;;;;
2023/04/03 10:47:42;;;;;;;4;3.6;;;;;;;;;;;;;
2023/04/03 10:50:12;;;;;;;4.2;3.8;;;;;;;;;;;;;
2023/04/03 10:52:37;;;;;;;3.6;3.3;;;;;;;;;;;;;
2023/04/03 10:55:02;;;;;;;3.9;3.4;;;;;;;;;;;;;
2023/04/03 10:57:27;;;;;;;4;3.6;;;;;;;;;;;;;
2023/04/03 10:59:53;;;;;;;4.6;3.3;;;;;;;;;;;;;
2023/04/03 11:02:19;;;;;;;3.5;3.1;;;;;;;;;;;;;
2023/04/03 11:04:44;;;;;;;3.4;2.9;;;;;;;;;;;;;
2023/04/03 11:07:09;;;;;;;3.6;3.3;;;;;;;;;;;;;
2023/04/03 11:09:34;;;;;;;3.9;3.5;;;;;;;;;;;;;
2023/04/03 11:11:59;;;;;;;3.4;3.1;;;;;;;;;;;;;
2023/04/03 11:14:24;;;;;;;3.4;3.1;;;;;;;;;;;;;
2023/04/03 11:16:50;;;;;;;3.3;3;;;;;;;;;;;;;
2023/04/03 11:19:15;;;;;;;3.1;2.8;;;;;;;;;;;;;
2023/04/03 11:21:40;;;;;;;3.3;3;;;;;;;;;;;;;
2023/04/03 11:24:07;;;;;;;3.2;2.9;;;;;;;;;;;;;
2023/04/03 11:26:32;;;;;;;3.4;3.1;;;;;;;;;;;;;
2023/04/03 11:28:56;;;;;;;3.1;2.8;;;;;;;;;;;;;
2023/04/03 11:33:48;;;;;;;3;2.7;;;;;;;;;;;;;
2023/04/03 11:36:12;;;;;;;3.5;3.2;;;;;;;;;;;;;
2023/04/03 11:38:39;;;;;;;3.2;2.9;;;;;;;;;;;;;
2023/04/03 11:41:02;;;;;;;3.3;3;;;;;;;;;;;;;
2023/04/03 11:43:29;;;;;;;3.4;3.1;;;;;;;;;;;;;
2023/04/03 11:45:54;;;;;;;3.6;3.3;;;;;;;;;;;;;
2023/04/03 11:48:20;;;;;;;3.3;3;;;;;;;;;;;;;
2023/04/03 11:50:44;;;;;;;3;2.7;;;;;;;;;;;;;
2023/04/03 11:53:28;;;;;;;4.1;2.9;;;;;;;;;;;;;
2023/04/03 11:55:54;;;;;;;3.3;3;;;;;;;;;;;;;
2023/04/03 11:58:18;;;;;;;3.5;3.2;;;;;;;;;;;;;
2023/04/03 12:00:44;;;;;;;3.7;3;;;;;;;;;;;;;
2023/04/03 12:03:09;;;;;;;3.2;2.9;;;;;;;;;;;;;
2023/04/03 12:05:34;;;;;;;2.9;2.7;;;;;;;;;;;;;
2023/04/03 12:07:59;;;;;;;3.4;3.1;;;;;;;;;;;;;
2023/04/03 12:10:24;;;;;;;3.5;3.2;;;;;;;;;;;;;
2023/04/03 12:12:49;;;;;;;3.7;3.2;;;;;;;;;;;;;
2023/04/03 12:15:15;;;;;;;3.9;3.5;;;;;;;;;;;;;
2023/04/03 12:17:40;;;;;;;4;3.3;;;;;;;;;;;;;
2023/04/03 12:20:05;;;;;;;3.7;3.4;;;;;;;;;;;;;
2023/04/03 12:22:31;;;;;;;3.5;3.1;;;;;;;;;;;;;
2023/04/03 12:24:56;;;;;;;4.1;3.5;;;;;;;;;;;;;
2023/04/03 12:27:22;;;;;;;3.6;3;;;;;;;;;;;;;
2023/04/03 12:29:47;;;;;;;3.2;2.9;;;;;;;;;;;;;
2023/04/03 12:32:13;;;;;;;3.4;2.7;;;;;;;;;;;;;
2023/04/03 12:35:00;;;;;;;3.3;3;;;;;;;;;;;;;
2023/04/03 12:37:26;;;;;;;3.2;2.9;;;;;;;;;;;;;
2023/04/03 12:39:50;;;;;;;3.2;2.7;;;;;;;;;;;;;
2023/04/03 12:42:15;;;;;;;2.5;2.3;;;;;;;;;;;;;
2023/04/03 12:44:41;;;;;;;2.5;2.3;;;;;;;;;;;;;
2023/04/03 12:47:06;;;;;;;3.7;3;;;;;;;;;;;;;
2023/04/03 12:49:31;;;;;;;2.7;2.4;;;;;;;;;;;;;
2023/04/03 12:51:56;;;;;;;2.6;2.4;;;;;;;;;;;;;
2023/04/03 12:54:21;;;;;;;3;2.6;;;;;;;;;;;;;
2023/04/03 12:56:46;;;;;;;3;2.7;;;;;;;;;;;;;
2023/04/03 12:59:22;;;;;;;3.2;2.9;;;;;;;;;;;;;
2023/04/03 13:01:47;;;;;;;3.8;3.3;;;;;;;;;;;;;
2023/04/03 13:04:13;;;;;;;3.9;2.9;;;;;;;;;;;;;
2023/04/03 13:06:38;;;;;;;3.6;2.8;;;;;;;;;;;;;
2023/04/03 13:09:03;;;;;;;2.8;2.5;;;;;;;;;;;;;
2023/04/03 13:11:28;;;;;;;3.2;2.9;;;;;;;;;;;;;
2023/04/03 13:13:53;;;;;;;3.4;2.8;;;;;;;;;;;;;
2023/04/03 13:16:19;;;;;;;2.9;2.7;;;;;;;;;;;;;
2023/04/03 13:18:44;;;;;;;3.6;3.2;;;;;;;;;;;;;
2023/04/03 13:21:11;;;;;;;3.4;3.1;;;;;;;;;;;;;
2023/04/03 13:23:36;;;;;;;4;3.1;;;;;;;;;;;;;
2023/04/03 13:26:03;;;;;;;3.5;2.7;;;;;;;;;;;;;
2023/04/03 13:28:27;;;;;;;3.8;2.9;;;;;;;;;;;;;
2023/04/03 13:30:53;;;;;;;4.1;3.2;;;;;;;;;;;;;
2023/04/03 13:33:18;;;;;;;3.6;2.8;;;;;;;;;;;;;
2023/04/03 13:35:43;;;;;;;2.9;2.7;;;;;;;;;;;;;
2023/04/03 13:38:08;;;;;;;3.1;2.9;;;;;;;;;;;;;
2023/04/03 13:40:33;;;;;;;3.7;2.8;;;;;;;;;;;;;
2023/04/03 13:42:58;;;;;;;3.8;2.8;;;;;;;;;;;;;
2023/04/03 13:45:25;;;;;;;2.8;2.6;;;;;;;;;;;;;
2023/04/03 13:47:49;;;;;;;3;2.5;;;;;;;;;;;;;
2023/04/03 13:50:14;;;;;;;2.9;2.5;;;;;;;;;;;;;
2023/04/03 13:52:39;;;;;;;2.9;2.5;;;;;;;;;;;;;
2023/04/03 13:55:04;;;;;;;3.1;2.8;;;;;;;;;;;;;
2023/04/03 13:57:29;;;;;;;3.4;3;;;;;;;;;;;;;
2023/04/03 13:59:54;;;;;;;3.8;2.5;;;;;;;;;;;;;
2023/04/03 14:02:22;;;;;;;3.3;3;;;;;;;;;;;;;
2023/04/03 14:04:47;;;;;;;3.6;2.9;;;;;;;;;;;;;
2023/04/03 14:07:12;;;;;;;3.2;2.9;;;;;;;;;;;;;
2023/04/03 14:09:37;;;;;;;3.1;2.8;;;;;;;;;;;;;
2023/04/03 14:12:04;;;;;;;3.1;2.8;;;;;;;;;;;;;
2023/04/03 14:14:28;;;;;;;3.1;2.8;;;;;;;;;;;;;
2023/04/03 14:16:54;;;;;;;3.1;2.8;;;;;;;;;;;;;
2023/04/03 14:19:19;;;;;;;3.1;2.7;;;;;;;;;;;;;
2023/04/03 14:21:45;;;;;;;3.3;3;;;;;;;;;;;;;
2023/04/03 14:24:11;;;;;;;3.8;3.4;;;;;;;;;;;;;
2023/04/03 14:26:37;;;;;;;4.4;3.4;;;;;;;;;;;;;
2023/04/03 14:29:02;;;;;;;4.7;3.8;;;;;;;;;;;;;
2023/04/03 14:31:27;;;;;;;3.6;3.2;;;;;;;;;;;;;
2023/04/03 14:33:52;;;;;;;4.3;3.8;;;;;;;;;;;;;
2023/04/03 14:36:17;;;;;;;4.4;4;;;;;;;;;;;;;
2023/04/03 14:38:43;;;;;;;4.3;3.4;;;;;;;;;;;;;
2023/04/03 14:41:09;;;;;;;4.9;3.7;;;;;;;;;;;;;
2023/04/03 14:43:35;;;;;;;3.6;3;;;;;;;;;;;;;
2023/04/03 14:46:01;;;;;;;3.7;3;;;;;;;;;;;;;
2023/04/03 14:48:25;;;;;;;2.8;2.6;;;;;;;;;;;;;
2023/04/03 14:50:50;;;;;;;4.5;3.2;;;;;;;;;;;;;
2023/04/03 14:53:16;;;;;;;3.4;2.8;;;;;;;;;;;;;
2023/04/03 14:55:41;;;;;;;3.3;2.8;;;;;;;;;;;;;
2023/04/03 14:58:07;;;;;;;3.2;2.9;;;;;;;;;;;;;
2023/04/03 15:00:32;;;;;;;3.6;3.3;;;;;;;;;;;;;
2023/04/03 15:02:59;;;;;;;3.7;3.4;;;;;;;;;;;;;
2023/04/03 15:05:25;;;;;;;4.2;3.6;;;;;;;;;;;;;
2023/04/03 15:07:50;;;;;;;3.4;3;;;;;;;;;;;;;
2023/04/03 15:10:15;;;;;;;4.8;3.8;;;;;;;;;;;;;
2023/04/03 15:12:41;;;;;;;4.4;3.5;;;;;;;;;;;;;
2023/04/03 15:15:06;;;;;;;4.4;3.1;;;;;;;;;;;;;
2023/04/03 15:17:33;;;;;;;3.4;3;;;;;;;;;;;;;
2023/04/03 15:19:58;;;;;;;3.5;3;;;;;;;;;;;;;
2023/04/03 15:22:23;;;;;;;3.9;3.1;;;;;;;;;;;;;
2023/04/03 15:24:49;;;;;;;4.2;3.6;;;;;;;;;;;;;
2023/04/03 15:27:15;;;;;;;3.6;3.3;;;;;;;;;;;;;
2023/04/03 15:29:39;;;;;;;3.6;3.3;;;;;;;;;;;;;
2023/04/03 15:32:05;;;;;;;3.6;3.1;;;;;;;;;;;;;
2023/04/03 15:34:31;;;;;;;4.2;3.1;;;;;;;;;;;;;
2023/04/03 15:36:56;;;;;;;3.9;3.1;;;;;;;;;;;;;
2023/04/03 15:39:23;;;;;;;4.1;3.2;;;;;;;;;;;;;
2023/04/03 15:41:47;;;;;;;3.5;3;;;;;;;;;;;;;
2023/04/03 15:44:11;;;;;;;4.2;3.5;;;;;;;;;;;;;
2023/04/03 15:46:37;;;;;;;3.8;2.8;;;;;;;;;;;;;
2023/04/03 15:49:02;;;;;;;4.2;3.1;;;;;;;;;;;;;
2023/04/03 15:51:27;;;;;;;3.2;2.9;;;;;;;;;;;;;
2023/04/03 15:53:54;;;;;;;5.2;3.2;;;;;;;;;;;;;
2023/04/03 15:56:19;;;;;;;3.5;3.2;;;;;;;;;;;;;
2023/04/03 15:58:44;;;;;;;4.8;4;;;;;;;;;;;;;
2023/04/03 16:01:09;;;;;;;4.2;3.5;;;;;;;;;;;;;
2023/04/03 16:03:34;;;;;;;3.6;3.3;;;;;;;;;;;;;
2023/04/03 16:05:59;;;;;;;4;3.4;;;;;;;;;;;;;
2023/04/03 16:08:27;;;;;;;3.7;3.2;;;;;;;;;;;;;
2023/04/03 16:10:52;;;;;;;5.3;3.4;;;;;;;;;;;;;
2023/04/03 16:13:17;;;;;;;3.9;3.5;;;;;;;;;;;;;
2023/04/03 16:15:42;;;;;;;4.3;3.8;;;;;;;;;;;;;
2023/04/03 16:18:10;;;;;;;4.3;3.1;;;;;;;;;;;;;
2023/04/03 16:20:35;;;;;;;3.9;3.1;;;;;;;;;;;;;
2023/04/03 16:23:00;;;;;;;4.8;2.9;;;;;;;;;;;;;
2023/04/03 16:25:25;;;;;;;3.9;3;;;;;;;;;;;;;
2023/04/03 16:27:51;;;;;;;3.9;3.1;;;;;;;;;;;;;
2023/04/03 16:30:16;;;;;;;4.8;3.4;;;;;;;;;;;;;
2023/04/03 16:32:41;;;;;;;2.9;2.6;;;;;;;;;;;;;
2023/04/03 16:35:06;;;;;;;4.6;3.1;;;;;;;;;;;;;
2023/04/03 16:37:32;;;;;;;3.5;2.8;;;;;;;;;;;;;
2023/04/03 16:39:57;;;;;;;3.9;2.8;;;;;;;;;;;;;
2023/04/03 16:42:24;;;;;;;4.1;3.4;;;;;;;;;;;;;
2023/04/03 16:44:49;;;;;;;5.4;3.7;;;;;;;;;;;;;
2023/04/03 16:47:18;;;;;;;4.5;3.6;;;;;;;;;;;;;
2023/04/03 16:49:41;;;;;;;4.2;3.6;;;;;;;;;;;;;
2023/04/03 16:52:07;;;;;;;3.3;2.9;;;;;;;;;;;;;
2023/04/03 16:54:32;;;;;;;3.2;2.7;;;;;;;;;;;;;
2023/04/03 16:56:57;;;;;;;4.1;3.1;;;;;;;;;;;;;
2023/04/03 16:59:22;;;;;;;4.1;3.7;;;;;;;;;;;;;
2023/04/03 17:01:48;;;;;;;4.5;3;;;;;;;;;;;;;
2023/04/03 17:04:14;;;;;;;2.8;2.4;;;;;;;;;;;;;
2023/04/03 17:06:39;;;;;;;3.9;3.1;;;;;;;;;;;;;
2023/04/03 17:09:04;;;;;;;4;3.4;;;;;;;;;;;;;
2023/04/03 17:11:31;;;;;;;4.3;3.9;;;;;;;;;;;;;
2023/04/03 17:13:56;;;;;;;4.3;3.6;;;;;;;;;;;;;
2023/04/03 17:16:22;;;;;;;5.1;3.8;;;;;;;;;;;;;
2023/04/03 17:18:47;;;;;;;4.7;3.9;;;;;;;;;;;;;
2023/04/03 17:21:13;;;;;;;4.6;3.7;;;;;;;;;;;;;
2023/04/03 17:23:38;;;;;;;4.1;3.5;;;;;;;;;;;;;
2023/04/03 17:26:04;;;;;;;4.8;3.6;;;;;;;;;;;;;
2023/04/03 17:28:29;;;;;;;4.3;3.8;;;;;;;;;;;;;
2023/04/03 17:30:54;;;;;;;5.1;4.1;;;;;;;;;;;;;
2023/04/03 17:33:20;;;;;;;4.5;3.9;;;;;;;;;;;;;
2023/04/03 17:35:45;;;;;;;4.6;4.1;;;;;;;;;;;;;
2023/04/03 17:38:10;;;;;;;4.9;3.9;;;;;;;;;;;;;
2023/04/03 17:40:35;;;;;;;4.9;4.1;;;;;;;;;;;;;
2023/04/03 17:43:01;;;;;;;5;3.8;;;;;;;;;;;;;
2023/04/03 17:45:26;;;;;;;5;4;;;;;;;;;;;;;
2023/04/03 17:47:53;;;;;;;4.5;3.7;;;;;;;;;;;;;
2023/04/03 17:50:18;;;;;;;6.4;3.9;;;;;;;;;;;;;
2023/04/03 17:52:45;;;;;;;5;3.8;;;;;;;;;;;;;
2023/04/03 17:55:10;;;;;;;3.9;3.4;;;;;;;;;;;;;
2023/04/03 17:57:35;;;;;;;4.7;3.3;;;;;;;;;;;;;
2023/04/03 18:00:00;;;;;;;5.3;3.6;;;;;;;;;;;;;
2023/04/03 18:02:28;;;;;;;4.9;3.7;;;;;;;;;;;;;
2023/04/03 18:04:52;;;;;;;4.7;3.6;;;;;;;;;;;;;
2023/04/03 18:07:19;;;;;;;4.3;3.2;;;;;;;;;;;;;
2023/04/03 18:09:44;;;;;;;4.7;3.7;;;;;;;;;;;;;
2023/04/03 18:12:10;;;;;;;4.9;3.6;;;;;;;;;;;;;
2023/04/03 18:14:35;;;;;;;4.2;3.5;;;;;;;;;;;;;
2023/04/03 18:17:02;;;;;;;5.9;4.1;;;;;;;;;;;;;
2023/04/03 18:19:27;;;;;;;7.2;4.1;;;;;;;;;;;;;
2023/04/03 18:21:52;;;;;;;5.4;4;;;;;;;;;;;;;
2023/04/03 18:24:17;;;;;;;5;3.6;;;;;;;;;;;;;
2023/04/03 18:26:45;;;;;;;4.6;3.9;;;;;;;;;;;;;
2023/04/03 18:29:09;;;;;;;4.5;3.7;;;;;;;;;;;;;
2023/04/03 18:31:35;;;;;;;4.2;3.6;;;;;;;;;;;;;
2023/04/03 18:34:00;;;;;;;4.9;3.5;;;;;;;;;;;;;
2023/04/03 18:36:25;;;;;;;4.8;3.5;;;;;;;;;;;;;
2023/04/03 18:38:50;;;;;;;3.9;3.5;;;;;;;;;;;;;
2023/04/03 18:41:17;;;;;;;5;3.6;;;;;;;;;;;;;
2023/04/03 18:43:42;;;;;;;4.4;3.3;;;;;;;;;;;;;
2023/04/03 18:46:08;;;;;;;4.6;3.4;;;;;;;;;;;;;
2023/04/03 18:48:33;;;;;;;4.1;3;;;;;;;;;;;;;
2023/04/03 18:50:59;;;;;;;3.8;2.9;;;;;;;;;;;;;
2023/04/03 18:53:24;;;;;;;3.7;2.9;;;;;;;;;;;;;
2023/04/03 18:55:49;;;;;;;4.6;2.9;;;;;;;;;;;;;
2023/04/03 18:58:15;;;;;;;3.9;3;;;;;;;;;;;;;
2023/04/03 19:00:41;;;;;;;3.4;3;;;;;;;;;;;;;